createdAt,value
2019-03-09T00:00:00.918Z,990.56
2019-03-09T00:02:00.815Z,990.62
2019-03-09T00:04:00.974Z,990.18
2019-03-09T00:06:01.061Z,990.18
2019-03-09T00:08:01.039Z,990.60
2019-03-09T00:10:01.492Z,990.57
2019-03-09T00:12:01.281Z,990.37
2019-03-09T00:14:00.787Z,990.47
2019-03-09T00:16:00.895Z,990.67
2019-03-09T00:18:01.046Z,990.50
2019-03-09T00:20:01.141Z,990.79
2019-03-09T00:22:01.127Z,990.47
2019-03-09T00:24:01.055Z,990.71
2019-03-09T00:26:01.150Z,990.50
2019-03-09T00:28:01.575Z,990.29
2019-03-09T00:30:01.076Z,990.64
2019-03-09T00:32:01.105Z,990.44
2019-03-09T00:34:01.140Z,990.28
2019-03-09T00:36:01.426Z,990.19
2019-03-09T00:38:01.022Z,990.68
2019-03-09T00:40:01.093Z,990.28
2019-03-09T00:42:01.144Z,990.50
2019-03-09T00:44:01.061Z,990.25
2019-03-09T00:46:01.168Z,990.30
2019-03-09T00:48:01.077Z,990.67
2019-03-09T00:50:01.195Z,990.67
2019-03-09T00:52:00.900Z,990.33
2019-03-09T00:54:00.909Z,990.02
2019-03-09T00:56:01.025Z,990.11
2019-03-09T00:58:01.080Z,989.93
2019-03-09T01:00:01.043Z,990.25
2019-03-09T01:02:01.159Z,989.92
2019-03-09T01:04:01.173Z,989.78
2019-03-09T01:06:01.186Z,989.65
2019-03-09T01:08:01.282Z,989.64
2019-03-09T01:10:01.006Z,989.97
2019-03-09T01:12:01.220Z,989.52
2019-03-09T01:14:01.130Z,989.51
2019-03-09T01:16:01.199Z,989.33
2019-03-09T01:18:01.138Z,989.49
2019-03-09T01:20:01.122Z,989.18
2019-03-09T01:22:01.281Z,989.41
2019-03-09T01:24:01.105Z,989.30
2019-03-09T01:26:00.994Z,989.04
2019-03-09T01:28:01.217Z,988.88
2019-03-09T01:30:01.225Z,988.98
2019-03-09T01:32:01.227Z,989.07
2019-03-09T01:34:01.291Z,989.08
2019-03-09T01:36:01.359Z,988.39
2019-03-09T01:38:01.167Z,988.78
2019-03-09T01:40:01.386Z,988.61
2019-03-09T01:42:01.185Z,988.22
2019-03-09T01:44:00.987Z,988.64
2019-03-09T01:46:00.887Z,988.48
2019-03-09T01:48:01.092Z,988.13
2019-03-09T01:50:01.031Z,988.16
2019-03-09T01:52:01.253Z,988.28
2019-03-09T01:54:01.121Z,988.36
2019-03-09T01:56:01.168Z,988.15
2019-03-09T01:58:01.377Z,988.12
2019-03-09T02:00:01.033Z,987.95
2019-03-09T02:02:01.176Z,988.11
2019-03-09T02:04:01.073Z,988.26
2019-03-09T02:06:01.120Z,988.07
2019-03-09T02:08:01.131Z,987.93
2019-03-09T02:10:01.027Z,988.17
2019-03-09T02:12:01.158Z,987.88
2019-03-09T02:14:01.165Z,988.04
2019-03-09T02:16:01.047Z,987.86
2019-03-09T02:18:01.382Z,987.73
2019-03-09T02:20:01.430Z,987.78
2019-03-09T02:22:01.124Z,987.50
2019-03-09T02:24:01.228Z,987.75
2019-03-09T02:26:01.240Z,987.64
2019-03-09T02:28:01.457Z,987.71
2019-03-09T02:30:01.183Z,987.47
2019-03-09T02:32:01.595Z,987.55
2019-03-09T02:34:00.927Z,987.53
2019-03-09T02:36:01.191Z,987.44
2019-03-09T02:38:01.207Z,987.58
2019-03-09T02:40:01.213Z,987.49
2019-03-09T02:42:01.231Z,987.51
2019-03-09T02:44:01.039Z,987.70
2019-03-09T02:46:01.286Z,987.64
2019-03-09T02:48:01.470Z,987.38
2019-03-09T02:50:01.277Z,987.59
2019-03-09T02:52:01.244Z,987.33
2019-03-09T02:54:01.501Z,987.09
2019-03-09T02:56:01.317Z,987.21
2019-03-09T02:58:01.318Z,987.43
2019-03-09T03:00:01.774Z,987.21
2019-03-09T03:02:01.117Z,987.04
2019-03-09T03:04:01.214Z,987.15
2019-03-09T03:06:01.204Z,987.50
2019-03-09T03:08:01.278Z,987.23
2019-03-09T03:10:01.292Z,987.07
2019-03-09T03:12:01.300Z,986.97
2019-03-09T03:14:01.202Z,987.10
2019-03-09T03:16:01.330Z,987.24
2019-03-09T03:18:01.235Z,987.03
2019-03-09T03:20:01.552Z,986.84
2019-03-09T03:22:01.301Z,987.17
2019-03-09T03:24:01.162Z,987.13
2019-03-09T03:26:01.283Z,986.86
2019-03-09T03:28:01.295Z,987.07
2019-03-09T03:30:01.358Z,987.03
2019-03-09T03:32:01.323Z,986.91
2019-03-09T03:34:01.532Z,987.11
2019-03-09T03:36:01.114Z,986.91
2019-03-09T03:38:01.374Z,987.25
2019-03-09T03:40:01.258Z,987.06
2019-03-09T03:42:01.419Z,986.88
2019-03-09T03:44:01.585Z,986.95
2019-03-09T03:46:01.189Z,987.03
2019-03-09T03:48:01.349Z,986.93
2019-03-09T03:50:01.620Z,987.12
2019-03-09T03:52:01.346Z,987.04
2019-03-09T03:54:01.237Z,986.84
2019-03-09T03:56:00.986Z,986.95
2019-03-09T03:58:01.267Z,987.04
2019-03-09T04:00:01.376Z,987.00
2019-03-09T04:02:01.395Z,986.90
2019-03-09T04:04:01.826Z,986.89
2019-03-09T04:06:01.416Z,986.37
2019-03-09T04:08:01.314Z,986.80
2019-03-09T04:10:01.326Z,986.61
2019-03-09T04:12:01.339Z,986.90
2019-03-09T04:14:01.570Z,987.03
2019-03-09T04:16:01.163Z,986.92
2019-03-09T04:18:01.269Z,986.99
2019-03-09T04:20:01.295Z,987.10
2019-03-09T04:22:01.089Z,986.71
2019-03-09T04:24:01.325Z,987.36
2019-03-09T04:26:01.424Z,987.35
2019-03-09T04:28:01.577Z,986.79
2019-03-09T04:30:01.646Z,987.14
2019-03-09T04:32:01.389Z,987.22
2019-03-09T04:34:01.110Z,987.23
2019-03-09T04:36:01.231Z,987.36
2019-03-09T04:38:01.087Z,987.46
2019-03-09T04:40:01.120Z,987.34
2019-03-09T04:42:01.307Z,987.32
2019-03-09T04:44:01.254Z,987.42
2019-03-09T04:46:01.495Z,987.03
2019-03-09T04:48:01.356Z,987.59
2019-03-09T04:50:01.360Z,987.49
2019-03-09T04:52:01.424Z,987.13
2019-03-09T04:54:01.379Z,986.85
2019-03-09T04:56:01.292Z,987.42
2019-03-09T04:58:01.097Z,987.31
2019-03-09T05:00:01.314Z,987.64
2019-03-09T05:02:01.426Z,987.23
2019-03-09T05:04:01.162Z,987.04
2019-03-09T05:06:01.345Z,987.42
2019-03-09T05:08:01.339Z,987.12
2019-03-09T05:10:01.175Z,987.62
2019-03-09T05:12:01.489Z,987.14
2019-03-09T05:14:01.599Z,987.22
2019-03-09T05:16:01.391Z,987.57
2019-03-09T05:18:01.628Z,987.07
2019-03-09T05:20:01.431Z,987.02
2019-03-09T05:22:01.214Z,987.41
2019-03-09T05:24:01.326Z,987.27
2019-03-09T05:26:01.363Z,987.34
2019-03-09T05:28:01.237Z,987.47
2019-03-09T05:30:01.203Z,987.36
2019-03-09T05:32:01.194Z,987.18
2019-03-09T05:34:01.414Z,987.52
2019-03-09T05:36:01.522Z,987.40
2019-03-09T05:38:01.329Z,987.89
2019-03-09T05:40:01.443Z,987.47
2019-03-09T05:42:01.358Z,987.48
2019-03-09T05:44:01.232Z,987.95
2019-03-09T05:46:01.278Z,987.16
2019-03-09T05:48:01.210Z,987.83
2019-03-09T05:50:01.708Z,987.72
2019-03-09T05:52:01.451Z,987.85
2019-03-09T05:54:01.406Z,987.97
2019-03-09T05:56:01.343Z,987.80
2019-03-09T05:58:01.652Z,987.53
2019-03-09T06:00:01.460Z,987.53
2019-03-09T06:02:01.375Z,987.61
2019-03-09T06:04:01.586Z,987.35
2019-03-09T06:06:01.296Z,987.39
2019-03-09T06:08:01.282Z,987.76
2019-03-09T06:10:01.721Z,988.17
2019-03-09T06:12:01.528Z,987.84
2019-03-09T06:14:01.447Z,987.99
2019-03-09T06:16:01.455Z,988.00
2019-03-09T06:18:01.358Z,987.41
2019-03-09T06:20:01.473Z,988.02
2019-03-09T06:22:01.488Z,988.00
2019-03-09T06:24:01.316Z,987.96
2019-03-09T06:26:01.307Z,987.76
2019-03-09T06:28:01.579Z,987.92
2019-03-09T06:30:01.426Z,987.45
2019-03-09T06:32:01.324Z,987.90
2019-03-09T06:34:01.666Z,988.20
2019-03-09T06:36:01.472Z,988.01
2019-03-09T06:38:01.478Z,988.50
2019-03-09T06:40:01.801Z,988.50
2019-03-09T06:42:01.707Z,988.63
2019-03-09T06:44:01.332Z,988.82
2019-03-09T06:46:01.294Z,988.62
2019-03-09T06:48:01.437Z,988.90
2019-03-09T06:50:01.445Z,988.63
2019-03-09T06:52:01.553Z,988.17
2019-03-09T06:54:01.466Z,988.54
2019-03-09T06:56:01.485Z,988.34
2019-03-09T06:58:01.489Z,988.52
2019-03-09T07:00:01.422Z,988.46
2019-03-09T07:02:01.510Z,988.40
2019-03-09T07:04:01.319Z,988.58
2019-03-09T07:06:01.414Z,988.41
2019-03-09T07:08:01.546Z,988.42
2019-03-09T07:10:01.339Z,988.45
2019-03-09T07:12:01.314Z,988.31
2019-03-09T07:14:01.472Z,988.61
2019-03-09T07:16:01.337Z,988.34
2019-03-09T07:18:01.736Z,988.46
2019-03-09T07:20:11.979Z,988.86
2019-03-09T07:22:01.418Z,988.65
2019-03-09T07:24:01.746Z,988.55
2019-03-09T07:26:01.968Z,988.57
2019-03-09T07:28:01.338Z,988.55
2019-03-09T07:30:01.269Z,988.63
2019-03-09T07:32:01.378Z,988.67
2019-03-09T07:34:01.295Z,988.93
2019-03-09T07:36:01.609Z,988.84
2019-03-09T07:38:01.505Z,988.63
2019-03-09T07:40:01.636Z,988.65
2019-03-09T07:42:01.508Z,988.88
2019-03-09T07:44:01.653Z,988.63
2019-03-09T07:46:01.419Z,988.43
2019-03-09T07:48:01.469Z,988.85
2019-03-09T07:50:01.380Z,989.10
2019-03-09T07:52:01.395Z,988.82
2019-03-09T07:54:01.508Z,988.92
2019-03-09T07:56:01.722Z,988.80
2019-03-09T07:58:01.447Z,989.10
2019-03-09T08:00:01.660Z,989.05
2019-03-09T08:02:01.446Z,989.14
2019-03-09T08:04:01.458Z,989.04
2019-03-09T08:06:01.605Z,988.93
2019-03-09T08:08:01.614Z,989.22
2019-03-09T08:10:01.433Z,989.20
2019-03-09T08:12:01.319Z,989.06
2019-03-09T08:14:01.618Z,989.10
2019-03-09T08:16:01.450Z,989.43
2019-03-09T08:18:01.543Z,989.21
2019-03-09T08:20:01.567Z,989.63
2019-03-09T08:22:01.863Z,989.68
2019-03-09T08:24:01.662Z,988.94
2019-03-09T08:26:01.503Z,989.25
2019-03-09T08:28:01.605Z,989.06
2019-03-09T08:30:02.427Z,989.36
2019-03-09T08:32:01.647Z,989.23
2019-03-09T08:34:01.414Z,989.61
2019-03-09T08:36:01.436Z,989.39
2019-03-09T08:38:01.465Z,989.67
2019-03-09T08:40:01.785Z,989.57
2019-03-09T08:42:01.687Z,989.80
2019-03-09T08:44:01.596Z,989.64
2019-03-09T08:46:01.745Z,989.63
2019-03-09T08:48:01.721Z,989.31
2019-03-09T08:50:01.623Z,989.80
2019-03-09T08:52:01.670Z,989.88
2019-03-09T08:54:01.654Z,989.52
2019-03-09T08:56:01.650Z,989.62
2019-03-09T08:58:01.739Z,989.78
2019-03-09T09:00:01.960Z,989.58
2019-03-09T09:02:01.590Z,989.76
2019-03-09T09:04:01.615Z,989.58
2019-03-09T09:06:01.627Z,990.18
2019-03-09T09:08:03.622Z,989.94
2019-03-09T09:10:01.518Z,989.76
2019-03-09T09:12:01.658Z,989.64
2019-03-09T09:14:01.668Z,989.79
2019-03-09T09:16:01.678Z,989.93
2019-03-09T09:18:01.488Z,990.26
2019-03-09T09:20:01.909Z,990.74
2019-03-09T09:22:01.713Z,990.17
2019-03-09T09:24:01.519Z,990.16
2019-03-09T09:26:01.736Z,990.22
2019-03-09T09:28:01.537Z,990.56
2019-03-09T09:30:01.559Z,990.13
2019-03-09T09:32:01.577Z,990.32
2019-03-09T09:34:01.818Z,990.33
2019-03-09T09:36:01.690Z,990.35
2019-03-09T09:38:01.704Z,990.00
2019-03-09T09:40:01.544Z,989.94
2019-03-09T09:42:01.615Z,989.90
2019-03-09T09:44:01.739Z,989.93
2019-03-09T09:46:02.061Z,989.75
2019-03-09T09:48:01.875Z,990.02
2019-03-09T09:50:01.532Z,990.10
2019-03-09T09:52:01.686Z,989.98
2019-03-09T09:54:01.698Z,989.98
2019-03-09T09:56:01.705Z,989.73
2019-03-09T09:58:01.578Z,989.57
2019-03-09T10:00:01.736Z,989.75
2019-03-09T10:02:01.762Z,989.95
2019-03-09T10:04:01.414Z,989.88
2019-03-09T10:06:01.562Z,989.85
2019-03-09T10:08:01.776Z,989.90
2019-03-09T10:10:01.614Z,989.93
2019-03-09T10:12:01.721Z,990.07
2019-03-09T10:14:01.605Z,989.66
2019-03-09T10:16:01.717Z,990.29
2019-03-09T10:18:01.634Z,989.71
2019-03-09T10:20:01.575Z,989.77
2019-03-09T10:22:01.855Z,989.99
2019-03-09T10:24:01.718Z,989.94
2019-03-09T10:26:01.778Z,989.92
2019-03-09T10:28:01.652Z,990.14
2019-03-09T10:30:01.721Z,989.78
2019-03-09T10:32:01.606Z,989.84
2019-03-09T10:34:01.646Z,989.85
2019-03-09T10:36:01.631Z,989.81
2019-03-09T10:38:01.853Z,990.12
2019-03-09T10:40:01.655Z,990.14
2019-03-09T10:42:01.612Z,989.94
2019-03-09T10:44:01.683Z,989.95
2019-03-09T10:46:01.677Z,989.75
2019-03-09T10:48:01.696Z,989.97
2019-03-09T10:50:01.833Z,989.78
2019-03-09T10:52:01.722Z,989.79
2019-03-09T10:54:01.943Z,989.86
2019-03-09T10:56:01.904Z,989.85
2019-03-09T10:58:01.862Z,989.78
2019-03-09T11:00:01.800Z,989.68
2019-03-09T11:02:01.783Z,989.64
2019-03-09T11:04:01.695Z,989.84
2019-03-09T11:06:01.697Z,989.49
2019-03-09T11:08:01.709Z,989.97
2019-03-09T11:10:01.833Z,989.39
2019-03-09T11:12:01.877Z,989.45
2019-03-09T11:14:01.759Z,989.24
2019-03-09T11:16:01.692Z,989.21
2019-03-09T11:18:01.765Z,989.13
2019-03-09T11:20:01.898Z,989.19
2019-03-09T11:22:01.942Z,988.97
2019-03-09T11:24:01.829Z,989.33
2019-03-09T11:26:01.619Z,989.15
2019-03-09T11:28:01.942Z,989.18
2019-03-09T11:30:01.764Z,989.00
2019-03-09T11:32:01.751Z,989.43
2019-03-09T11:34:01.663Z,989.06
2019-03-09T11:36:01.827Z,989.24
2019-03-09T11:38:01.678Z,989.11
2019-03-09T11:40:01.753Z,989.06
2019-03-09T11:42:02.012Z,989.22
2019-03-09T11:44:01.924Z,989.48
2019-03-09T11:46:02.243Z,989.54
2019-03-09T11:48:01.696Z,989.65
2019-03-09T11:50:01.753Z,989.92
2019-03-09T11:52:01.978Z,989.40
2019-03-09T11:54:01.786Z,989.73
2019-03-09T11:56:01.796Z,989.36
2019-03-09T11:58:01.798Z,989.60
2019-03-09T12:00:01.771Z,989.48
2019-03-09T12:02:01.860Z,989.35
2019-03-09T12:04:01.624Z,989.53
2019-03-09T12:06:01.785Z,989.33
2019-03-09T12:08:01.870Z,989.08
2019-03-09T12:10:01.975Z,989.19
2019-03-09T12:12:01.880Z,988.98
2019-03-09T12:14:01.895Z,988.66
2019-03-09T12:16:01.671Z,988.90
2019-03-09T12:18:01.811Z,988.57
2019-03-09T12:20:01.935Z,988.66
2019-03-09T12:22:01.841Z,988.86
2019-03-09T12:24:01.856Z,988.33
2019-03-09T12:26:01.982Z,988.77
2019-03-09T12:28:01.665Z,988.43
2019-03-09T12:30:03.898Z,988.92
2019-03-09T12:32:01.898Z,989.29
2019-03-09T12:34:01.901Z,988.71
2019-03-09T12:36:01.807Z,988.58
2019-03-09T12:38:01.810Z,988.51
2019-03-09T12:40:02.160Z,988.39
2019-03-09T12:42:02.154Z,988.52
2019-03-09T12:44:01.968Z,988.41
2019-03-09T12:46:01.845Z,988.53
2019-03-09T12:48:01.897Z,988.15
2019-03-09T12:50:01.893Z,987.94
2019-03-09T12:52:01.886Z,988.12
2019-03-09T12:54:01.924Z,988.05
2019-03-09T12:56:01.899Z,987.92
2019-03-09T12:58:01.917Z,987.78
2019-03-09T13:00:01.907Z,987.80
2019-03-09T13:02:01.913Z,988.04
2019-03-09T13:04:01.936Z,987.89
2019-03-09T13:06:02.090Z,987.59
2019-03-09T13:08:01.896Z,987.94
2019-03-09T13:10:01.911Z,987.28
2019-03-09T13:12:02.255Z,987.66
2019-03-09T13:14:01.879Z,987.18
2019-03-09T13:16:01.953Z,987.38
2019-03-09T13:18:02.370Z,987.04
2019-03-09T13:20:01.761Z,987.00
2019-03-09T13:22:01.981Z,987.17
2019-03-09T13:24:01.903Z,987.05
2019-03-09T13:26:01.892Z,987.17
2019-03-09T13:28:01.945Z,987.19
2019-03-09T13:30:01.965Z,987.20
2019-03-09T13:32:02.041Z,987.51
2019-03-09T13:34:01.886Z,987.02
2019-03-09T13:36:02.099Z,986.99
2019-03-09T13:38:01.970Z,987.32
2019-03-09T13:40:02.013Z,986.94
2019-03-09T13:42:01.921Z,986.76
2019-03-09T13:44:01.899Z,986.71
2019-03-09T13:46:01.991Z,986.81
2019-03-09T13:48:02.037Z,986.65
2019-03-09T13:50:01.678Z,986.49
2019-03-09T13:52:01.740Z,985.99
2019-03-09T13:54:02.074Z,986.12
2019-03-09T13:56:02.183Z,986.49
2019-03-09T13:58:01.994Z,986.76
2019-03-09T14:00:02.010Z,985.99
2019-03-09T14:02:02.036Z,986.11
2019-03-09T14:04:01.812Z,986.37
2019-03-09T14:06:02.033Z,985.93
2019-03-09T14:08:02.044Z,986.03
2019-03-09T14:10:01.970Z,986.23
2019-03-09T14:12:01.960Z,985.89
2019-03-09T14:14:02.387Z,985.94
2019-03-09T14:16:01.767Z,985.74
2019-03-09T14:18:02.001Z,985.36
2019-03-09T14:20:01.913Z,985.42
2019-03-09T14:22:01.953Z,985.58
2019-03-09T14:24:01.952Z,985.85
2019-03-09T14:26:02.002Z,985.75
2019-03-09T14:28:01.998Z,985.81
2019-03-09T14:30:01.804Z,985.99
2019-03-09T14:32:01.935Z,985.88
2019-03-09T14:34:01.740Z,985.92
2019-03-09T14:36:01.793Z,986.37
2019-03-09T14:38:02.112Z,986.04
2019-03-09T14:40:02.035Z,985.81
2019-03-09T14:42:01.979Z,986.19
2019-03-09T14:44:01.977Z,986.58
2019-03-09T14:46:01.721Z,985.96
2019-03-09T14:48:01.979Z,985.94
2019-03-09T14:50:02.287Z,985.91
2019-03-09T14:52:02.298Z,985.88
2019-03-09T14:54:01.911Z,985.57
2019-03-09T14:56:02.123Z,986.19
2019-03-09T14:58:02.032Z,985.47
2019-03-09T15:00:02.139Z,985.76
2019-03-09T15:02:02.071Z,986.00
2019-03-09T15:04:02.133Z,985.48
2019-03-09T15:06:02.107Z,985.51
2019-03-09T15:08:01.787Z,985.74
2019-03-09T15:10:01.958Z,985.48
2019-03-09T15:12:02.223Z,985.35
2019-03-09T15:14:02.043Z,985.80
2019-03-09T15:16:01.918Z,985.25
2019-03-09T15:18:02.349Z,985.72
2019-03-09T15:20:02.160Z,985.50
2019-03-09T15:22:02.080Z,985.34
2019-03-09T15:24:01.964Z,985.47
2019-03-09T15:26:02.088Z,985.38
2019-03-09T15:28:02.001Z,985.71
2019-03-09T15:30:02.528Z,985.55
2019-03-09T15:32:02.127Z,985.45
2019-03-09T15:34:01.877Z,985.77
2019-03-09T15:36:02.152Z,985.60
2019-03-09T15:38:02.062Z,985.74
2019-03-09T15:40:02.448Z,985.48
2019-03-09T15:42:01.993Z,985.65
2019-03-09T15:44:02.012Z,985.49
2019-03-09T15:46:02.107Z,985.07
2019-03-09T15:48:02.223Z,985.36
2019-03-09T15:50:02.022Z,985.49
2019-03-09T15:52:02.149Z,985.51
2019-03-09T15:54:02.563Z,985.57
2019-03-09T15:56:02.167Z,986.10
2019-03-09T15:58:01.867Z,985.71
2019-03-09T16:00:02.112Z,985.65
2019-03-09T16:02:02.504Z,985.91
2019-03-09T16:04:02.168Z,985.50
2019-03-09T16:06:02.634Z,986.02
2019-03-09T16:08:02.545Z,985.76
2019-03-09T16:10:02.141Z,986.28
2019-03-09T16:12:02.099Z,985.76
2019-03-09T16:14:02.079Z,985.88
2019-03-09T16:16:01.843Z,985.73
2019-03-09T16:18:02.605Z,985.87
2019-03-09T16:20:02.529Z,985.67
2019-03-09T16:22:02.216Z,985.76
2019-03-09T16:24:02.636Z,985.55
2019-03-09T16:26:02.604Z,985.86
2019-03-09T16:28:02.461Z,985.58
2019-03-09T16:30:02.188Z,985.45
2019-03-09T16:32:02.484Z,985.28
2019-03-09T16:34:02.593Z,985.47
2019-03-09T16:36:01.990Z,985.70
2019-03-09T16:38:02.520Z,985.78
2019-03-09T16:40:02.576Z,985.57
2019-03-09T16:42:02.535Z,985.40
2019-03-09T16:44:02.548Z,985.53
2019-03-09T16:46:02.148Z,985.60
2019-03-09T16:48:02.569Z,985.86
2019-03-09T16:50:02.373Z,985.77
2019-03-09T16:52:01.982Z,985.77
2019-03-09T16:54:02.079Z,986.00
2019-03-09T16:56:02.141Z,985.77
2019-03-09T16:58:02.131Z,985.82
2019-03-09T17:00:02.128Z,986.29
2019-03-09T17:02:02.148Z,985.61
2019-03-09T17:04:02.559Z,985.72
2019-03-09T17:06:02.109Z,985.63
2019-03-09T17:08:02.489Z,985.73
2019-03-09T17:10:02.598Z,986.15
2019-03-09T17:12:02.609Z,986.13
2019-03-09T17:14:02.723Z,985.81
2019-03-09T17:16:02.395Z,986.06
2019-03-09T17:18:02.434Z,986.23
2019-03-09T17:20:02.346Z,986.65
2019-03-09T17:22:02.254Z,986.52
2019-03-09T17:24:02.583Z,986.59
2019-03-09T17:26:02.180Z,987.35
2019-03-09T17:28:02.561Z,986.39
2019-03-09T17:30:02.304Z,986.50
2019-03-09T17:32:02.617Z,987.12
2019-03-09T17:34:02.398Z,986.51
2019-03-09T17:36:02.055Z,987.07
2019-03-09T17:38:02.346Z,986.89
2019-03-09T17:40:02.358Z,987.04
2019-03-09T17:42:02.496Z,987.13
2019-03-09T17:44:02.290Z,987.31
2019-03-09T17:46:03.010Z,987.24
2019-03-09T17:48:02.206Z,986.99
2019-03-09T17:50:02.118Z,987.38
2019-03-09T17:52:02.230Z,987.44
2019-03-09T17:54:02.243Z,987.80
2019-03-09T17:56:02.452Z,987.40
2019-03-09T17:58:02.037Z,987.63
2019-03-09T18:00:02.296Z,987.57
2019-03-09T18:02:02.490Z,987.92
2019-03-09T18:04:02.409Z,987.84
2019-03-09T18:06:02.208Z,987.66
2019-03-09T18:08:02.420Z,987.85
2019-03-09T18:10:02.187Z,987.85
2019-03-09T18:12:02.650Z,988.23
2019-03-09T18:14:07.054Z,988.83
2019-03-09T18:16:02.054Z,989.29
2019-03-09T18:18:02.279Z,989.40
2019-03-09T18:20:02.165Z,989.64
2019-03-09T18:22:02.704Z,989.43
2019-03-09T18:24:02.511Z,989.59
2019-03-09T18:26:02.232Z,989.88
2019-03-09T18:28:02.397Z,990.15
2019-03-09T18:30:02.347Z,989.61
2019-03-09T18:32:02.260Z,990.05
2019-03-09T18:34:02.264Z,989.68
2019-03-09T18:36:02.796Z,990.32
2019-03-09T18:38:02.410Z,990.28
2019-03-09T18:40:02.354Z,990.35
2019-03-09T18:42:02.204Z,990.64
2019-03-09T18:44:02.530Z,990.23
2019-03-09T18:46:02.541Z,990.58
2019-03-09T18:48:02.865Z,990.66
2019-03-09T18:50:02.465Z,990.53
2019-03-09T18:52:02.248Z,990.51
2019-03-09T18:54:02.488Z,990.15
2019-03-09T18:56:02.437Z,990.27
2019-03-09T18:58:02.506Z,990.23
2019-03-09T19:00:02.539Z,990.61
2019-03-09T19:02:02.391Z,990.63
2019-03-09T19:04:03.061Z,990.16
2019-03-09T19:06:02.655Z,990.37
2019-03-09T19:08:02.533Z,990.76
2019-03-09T19:10:02.325Z,991.01
2019-03-09T19:12:02.601Z,990.90
2019-03-09T19:14:02.600Z,990.75
2019-03-09T19:16:02.528Z,990.97
2019-03-09T19:18:02.411Z,990.92
2019-03-09T19:20:02.540Z,990.94
2019-03-09T19:22:02.542Z,990.75
2019-03-09T19:24:02.362Z,990.95
2019-03-09T19:26:02.315Z,991.06
2019-03-09T19:28:02.579Z,990.85
2019-03-09T19:30:02.597Z,990.42
2019-03-09T19:32:02.404Z,990.90
2019-03-09T19:34:02.124Z,990.89
2019-03-09T19:36:02.521Z,990.87
2019-03-09T19:38:02.237Z,990.99
2019-03-09T19:40:02.338Z,990.94
2019-03-09T19:42:02.557Z,991.56
2019-03-09T19:44:05.205Z,991.21
2019-03-09T19:46:02.689Z,991.37
2019-03-09T19:48:02.596Z,991.05
2019-03-09T19:50:02.618Z,990.94
2019-03-09T19:52:02.399Z,991.14
2019-03-09T19:54:02.636Z,991.28
2019-03-09T19:56:02.234Z,991.11
2019-03-09T19:58:02.755Z,990.92
2019-03-09T20:00:02.187Z,991.10
2019-03-09T20:02:02.432Z,991.11
2019-03-09T20:04:02.299Z,990.91
2019-03-09T20:06:02.707Z,991.14
2019-03-09T20:08:02.349Z,991.14
2019-03-09T20:10:02.422Z,991.34
2019-03-09T20:12:02.560Z,991.50
2019-03-09T20:14:02.455Z,991.53
2019-03-09T20:16:02.608Z,991.33
2019-03-09T20:18:02.768Z,991.34
2019-03-09T20:20:02.589Z,991.00
2019-03-09T20:22:02.280Z,991.22
2019-03-09T20:24:02.203Z,990.93
2019-03-09T20:26:02.558Z,991.43
2019-03-09T20:28:02.414Z,991.49
2019-03-09T20:30:05.413Z,991.50
2019-03-09T20:32:02.442Z,991.19
2019-03-09T20:34:02.654Z,991.50
2019-03-09T20:36:02.777Z,991.26
2019-03-09T20:38:02.431Z,991.36
2019-03-09T20:40:02.691Z,991.33
2019-03-09T20:42:02.602Z,991.21
2019-03-09T20:44:02.307Z,991.38
2019-03-09T20:46:02.730Z,991.15
2019-03-09T20:48:02.569Z,991.09
2019-03-09T20:50:02.548Z,991.57
2019-03-09T20:52:02.432Z,991.53
2019-03-09T20:54:02.644Z,991.31
2019-03-09T20:56:02.276Z,991.54
2019-03-09T20:58:02.391Z,991.87
2019-03-09T21:00:02.410Z,991.41
2019-03-09T21:02:02.318Z,991.63
2019-03-09T21:04:02.444Z,991.63
2019-03-09T21:06:02.335Z,991.81
2019-03-09T21:08:02.342Z,991.76
2019-03-09T21:10:02.558Z,991.59
2019-03-09T21:12:02.474Z,991.71
2019-03-09T21:14:02.416Z,991.62
2019-03-09T21:16:02.633Z,991.55
2019-03-09T21:18:02.717Z,991.93
2019-03-09T21:20:02.426Z,991.68
2019-03-09T21:22:02.331Z,991.99
2019-03-09T21:24:02.343Z,991.96
2019-03-09T21:26:02.552Z,991.75
2019-03-09T21:28:02.563Z,991.78
2019-03-09T21:30:02.583Z,991.73
2019-03-09T21:32:02.379Z,991.67
2019-03-09T21:34:02.319Z,991.73
2019-03-09T21:36:02.324Z,991.71
2019-03-09T21:38:02.332Z,991.34
2019-03-09T21:40:02.432Z,991.70
2019-03-09T21:42:02.333Z,991.91
2019-03-09T21:44:02.460Z,991.54
2019-03-09T21:46:02.413Z,991.77
2019-03-09T21:48:02.415Z,991.79
2019-03-09T21:50:02.385Z,991.71
2019-03-09T21:52:02.508Z,991.68
2019-03-09T21:54:02.614Z,992.26
2019-03-09T21:56:02.528Z,991.82
2019-03-09T21:58:02.659Z,991.82
2019-03-09T22:00:02.552Z,991.91
2019-03-09T22:02:02.447Z,991.79
2019-03-09T22:04:02.251Z,991.60
2019-03-09T22:06:06.158Z,991.66
2019-03-09T22:08:02.472Z,991.59
2019-03-09T22:10:02.504Z,991.73
2019-03-09T22:12:02.620Z,991.53
2019-03-09T22:14:02.421Z,991.98
2019-03-09T22:16:02.322Z,991.22
2019-03-09T22:18:02.568Z,991.65
2019-03-09T22:20:02.558Z,991.51
2019-03-09T22:22:02.409Z,991.43
2019-03-09T22:24:02.492Z,991.65
2019-03-09T22:26:02.371Z,991.51
2019-03-09T22:28:02.529Z,991.36
2019-03-09T22:30:02.514Z,991.54
2019-03-09T22:32:02.526Z,991.27
2019-03-09T22:34:02.471Z,991.62
2019-03-09T22:36:02.555Z,991.25
2019-03-09T22:38:02.497Z,991.53
2019-03-09T22:40:02.793Z,991.30
2019-03-09T22:42:02.585Z,991.13
2019-03-09T22:44:02.471Z,991.21
2019-03-09T22:46:02.606Z,991.60
2019-03-09T22:48:02.531Z,991.26
2019-03-09T22:50:02.430Z,991.50
2019-03-09T22:52:02.751Z,991.22
2019-03-09T22:54:02.565Z,991.54
2019-03-09T22:56:02.582Z,991.03
2019-03-09T22:58:02.676Z,991.05
2019-03-09T23:00:02.485Z,991.31
2019-03-09T23:02:02.501Z,991.17
2019-03-09T23:04:02.307Z,991.64
2019-03-09T23:06:02.528Z,991.11
2019-03-09T23:08:02.541Z,991.32
2019-03-09T23:10:02.548Z,991.33
2019-03-09T23:12:02.761Z,991.13
2019-03-09T23:14:02.484Z,991.21
2019-03-09T23:16:02.378Z,991.21
2019-03-09T23:18:02.590Z,991.32
2019-03-09T23:20:02.612Z,991.50
2019-03-09T23:22:02.612Z,991.59
2019-03-09T23:24:02.404Z,991.28
2019-03-09T23:26:02.632Z,991.29
2019-03-09T23:28:02.526Z,991.28
2019-03-09T23:30:02.768Z,991.45
2019-03-09T23:32:02.573Z,991.57
2019-03-09T23:34:02.542Z,991.16
2019-03-09T23:36:02.596Z,991.35
2019-03-09T23:38:02.612Z,991.32
2019-03-09T23:40:02.619Z,991.22
2019-03-09T23:42:02.569Z,991.27
2019-03-09T23:44:02.688Z,991.45
2019-03-09T23:46:02.702Z,991.06
2019-03-09T23:48:02.558Z,991.23
2019-03-09T23:50:02.481Z,991.20
2019-03-09T23:52:02.532Z,991.23
2019-03-09T23:54:02.557Z,991.05
2019-03-09T23:56:02.618Z,991.19
2019-03-09T23:58:02.646Z,991.14
